createdAt,value
2022-10-31T00:02:20.393Z,101956.25
2022-10-31T00:04:53.024Z,101953.59
2022-10-31T00:07:27.935Z,101950.06
2022-10-31T00:10:01.703Z,101944.81
2022-10-31T00:12:35.295Z,101942.19
2022-10-31T00:15:09.276Z,101948.34
2022-10-31T00:17:52.184Z,101955.34
2022-10-31T00:20:27.019Z,101956.19
2022-10-31T00:23:05.048Z,101956.19
2022-10-31T00:25:44.205Z,101961.53
2022-10-31T00:28:24.179Z,101958.81
2022-10-31T00:31:04.078Z,101951.81
2022-10-31T00:33:41.028Z,101956.25
2022-10-31T00:36:22.371Z,101964.97
2022-10-31T00:38:57.689Z,101952.66
2022-10-31T00:41:39.945Z,101964.09
2022-10-31T00:44:13.525Z,101966.72
2022-10-31T00:46:45.812Z,101968.44
2022-10-31T00:49:24.046Z,101971.09
2022-10-31T00:51:51.380Z,101967.56
2022-10-31T00:54:28.541Z,101964.91
2022-10-31T00:56:55.953Z,101964.91
2022-10-31T00:59:24.779Z,101962.25
2022-10-31T01:01:52.296Z,101962.28
2022-10-31T01:04:23.372Z,101958.66
2022-10-31T01:07:00.037Z,101962.19
2022-10-31T01:09:28.490Z,101961.28
2022-10-31T01:12:00.354Z,101957.66
2022-10-31T01:14:33.524Z,101954.09
2022-10-31T01:17:09.228Z,101958.53
2022-10-31T01:19:42.168Z,101957.66
2022-10-31T01:22:14.878Z,101957.66
2022-10-31T01:24:44.691Z,101954.16
2022-10-31T01:27:17.059Z,101949.75
2022-10-31T01:29:51.268Z,101945.34
2022-10-31T01:32:28.052Z,101954.13
2022-10-31T01:34:58.320Z,101936.56
2022-10-31T01:37:31.253Z,101941.84
2022-10-31T01:40:03.655Z,101936.56
2022-10-31T01:42:35.570Z,101929.53
2022-10-31T01:45:06.644Z,101929.53
2022-10-31T01:47:52.724Z,101929.56
2022-10-31T01:50:51.694Z,101934.81
2022-10-31T01:53:25.978Z,101938.31
2022-10-31T01:55:54.635Z,101933.94
2022-10-31T01:58:29.081Z,101930.34
2022-10-31T02:01:06.685Z,101933.00
2022-10-31T02:03:35.488Z,101932.16
2022-10-31T02:06:15.380Z,101936.56
2022-10-31T02:08:44.944Z,101939.19
2022-10-31T02:11:16.120Z,101927.78
2022-10-31T02:13:48.758Z,101932.19
2022-10-31T02:16:21.052Z,101926.03
2022-10-31T02:18:53.260Z,101923.44
2022-10-31T02:21:52.152Z,101925.16
2022-10-31T02:24:28.422Z,101924.28
2022-10-31T02:27:07.248Z,101919.00
2022-10-31T02:29:37.610Z,101920.75
2022-10-31T02:32:47.346Z,101914.59
2022-10-31T02:35:36.361Z,101914.56
2022-10-31T02:38:18.501Z,101914.47
2022-10-31T02:41:01.443Z,101913.66
2022-10-31T02:43:55.242Z,101913.56
2022-10-31T02:46:29.325Z,101912.69
2022-10-31T02:49:01.768Z,101914.44
2022-10-31T02:51:29.518Z,101904.72
2022-10-31T02:53:56.568Z,101909.09
2022-10-31T02:56:23.803Z,101893.31
2022-10-31T02:59:09.050Z,101905.56
2022-10-31T03:01:40.383Z,101902.94
2022-10-31T03:04:52.971Z,101895.84
2022-10-31T03:07:50.934Z,101906.38
2022-10-31T03:10:44.808Z,101901.06
2022-10-31T03:13:35.911Z,101902.84
2022-10-31T03:16:20.700Z,101905.34
2022-10-31T03:19:01.061Z,101901.84
2022-10-31T03:21:45.498Z,101906.28
2022-10-31T03:24:14.896Z,101903.69
2022-10-31T03:26:48.046Z,101909.81
2022-10-31T03:29:18.381Z,101909.00
2022-10-31T03:31:56.214Z,101903.69
2022-10-31T03:34:24.616Z,101910.75
2022-10-31T03:36:58.602Z,101898.47
2022-10-31T03:39:25.974Z,101901.06
2022-10-31T03:41:59.244Z,101896.63
2022-10-31T03:44:28.049Z,101900.09
2022-10-31T03:47:01.120Z,101903.66
2022-10-31T03:49:29.779Z,101908.03
2022-10-31T03:52:06.672Z,101907.13
2022-10-31T03:54:47.986Z,101902.69
2022-10-31T03:57:30.915Z,101902.72
2022-10-31T04:00:18.955Z,101904.47
2022-10-31T04:02:57.201Z,101910.63
2022-10-31T04:05:26.838Z,101906.19
2022-10-31T04:08:01.964Z,101905.28
2022-10-31T04:10:33.153Z,101902.63
2022-10-31T04:13:11.720Z,101901.75
2022-10-31T04:15:47.031Z,101897.41
2022-10-31T04:18:15.996Z,101901.66
2022-10-31T04:20:43.431Z,101903.38
2022-10-31T04:23:22.275Z,101899.97
2022-10-31T04:25:50.567Z,101899.00
2022-10-31T04:30:50.458Z,101891.09
2022-10-31T04:33:18.158Z,101891.97
2022-10-31T04:35:48.576Z,101892.84
2022-10-31T04:38:16.768Z,101890.09
2022-10-31T04:40:46.407Z,101893.75
2022-10-31T04:43:31.755Z,101897.28
2022-10-31T04:46:09.495Z,101894.72
2022-10-31T04:48:36.907Z,101889.38
2022-10-31T04:51:06.822Z,101892.00
2022-10-31T04:53:34.336Z,101897.25
2022-10-31T04:56:24.596Z,101896.25
2022-10-31T04:58:57.315Z,101891.09
2022-10-31T05:01:38.512Z,101883.06
2022-10-31T05:04:23.467Z,101893.50
2022-10-31T05:06:56.227Z,101896.22
2022-10-31T05:09:32.495Z,101895.28
2022-10-31T05:12:16.416Z,101897.84
2022-10-31T05:15:14.817Z,101893.50
2022-10-31T05:18:13.638Z,101897.88
2022-10-31T05:21:12.643Z,101887.34
2022-10-31T05:23:58.305Z,101888.25
2022-10-31T05:26:37.088Z,101891.66
2022-10-31T05:29:21.276Z,101890.06
2022-10-31T05:31:59.548Z,101894.28
2022-10-31T05:35:09.882Z,101890.78
2022-10-31T05:38:04.587Z,101891.72
2022-10-31T05:40:50.368Z,101894.34
2022-10-31T05:43:39.122Z,101904.00
2022-10-31T05:46:27.212Z,101897.66
2022-10-31T05:49:21.734Z,101891.66
2022-10-31T05:52:16.031Z,101903.06
2022-10-31T05:54:57.016Z,101904.81
2022-10-31T05:57:33.657Z,101902.91
2022-10-31T06:00:18.762Z,101909.13
2022-10-31T06:03:13.068Z,101903.91
2022-10-31T06:06:01.615Z,101910.91
2022-10-31T06:08:40.343Z,101917.84
2022-10-31T06:11:13.771Z,101916.09
2022-10-31T06:13:59.822Z,101921.34
2022-10-31T06:16:40.443Z,101923.06
2022-10-31T06:19:42.609Z,101923.13
2022-10-31T06:22:25.990Z,101916.97
2022-10-31T06:24:59.852Z,101917.84
2022-10-31T06:27:34.471Z,101923.91
2022-10-31T06:30:14.429Z,101926.59
2022-10-31T06:32:49.169Z,101927.38
2022-10-31T06:35:23.595Z,101923.09
2022-10-31T06:38:03.987Z,101930.09
2022-10-31T06:40:40.108Z,101929.13
2022-10-31T06:43:37.230Z,101926.47
2022-10-31T06:46:29.120Z,101933.50
2022-10-31T06:49:20.592Z,101930.19
2022-10-31T06:52:05.735Z,101931.97
2022-10-31T06:54:49.314Z,101935.47
2022-10-31T06:57:20.169Z,101928.44
2022-10-31T06:59:55.365Z,101933.84
2022-10-31T07:03:05.037Z,101932.09
2022-10-31T07:05:40.143Z,101938.31
2022-10-31T07:08:13.592Z,101935.72
2022-10-31T07:10:43.192Z,101938.50
2022-10-31T07:13:18.397Z,101944.59
2022-10-31T07:15:56.449Z,101943.72
2022-10-31T07:18:23.986Z,101948.16
2022-10-31T07:20:51.157Z,101956.94
2022-10-31T07:23:19.362Z,101957.03
2022-10-31T07:26:03.118Z,101966.69
2022-10-31T07:28:40.427Z,101965.09
2022-10-31T07:31:11.170Z,101968.63
2022-10-31T07:33:39.657Z,101979.22
2022-10-31T07:36:30.184Z,101971.34
2022-10-31T07:39:05.620Z,101962.56
2022-10-31T07:41:35.674Z,101974.06
2022-10-31T07:44:03.394Z,101966.09
2022-10-31T07:46:30.901Z,101970.47
2022-10-31T07:49:17.664Z,101973.22
2022-10-31T07:52:03.666Z,101966.16
2022-10-31T07:54:49.185Z,101971.44
2022-10-31T07:57:25.920Z,101972.41
2022-10-31T07:59:55.452Z,101974.16
2022-10-31T08:02:31.413Z,101958.50
2022-10-31T08:05:35.181Z,101968.91
2022-10-31T08:08:23.565Z,101961.88
2022-10-31T08:10:50.967Z,101962.84
2022-10-31T08:13:18.971Z,101961.19
2022-10-31T08:15:53.288Z,101966.56
2022-10-31T08:18:25.437Z,101962.22
2022-10-31T08:20:54.908Z,101964.09
2022-10-31T08:23:23.108Z,101974.75
2022-10-31T08:25:50.627Z,101979.03
2022-10-31T08:28:18.455Z,101979.16
2022-10-31T08:30:49.682Z,101973.88
2022-10-31T08:33:35.211Z,101973.03
2022-10-31T08:36:23.888Z,101972.19
2022-10-31T08:39:02.020Z,101964.31
2022-10-31T08:41:31.556Z,101970.50
2022-10-31T08:44:03.360Z,101965.22
2022-10-31T08:46:30.930Z,101959.06
2022-10-31T08:48:58.786Z,101956.44
2022-10-31T08:54:08.154Z,101939.66
2022-10-31T08:56:57.516Z,101951.09
2022-10-31T08:59:47.707Z,101941.44
2022-10-31T09:02:41.594Z,101945.84
2022-10-31T09:05:09.446Z,101954.66
2022-10-31T09:07:39.767Z,101952.03
2022-10-31T09:10:07.537Z,101951.13
2022-10-31T09:12:44.938Z,101955.50
2022-10-31T09:15:45.160Z,101952.81
2022-10-31T09:18:30.695Z,101951.97
2022-10-31T09:21:06.513Z,101953.66
2022-10-31T09:23:44.582Z,101957.94
2022-10-31T09:26:20.099Z,101956.84
2022-10-31T09:29:10.883Z,101954.84
2022-10-31T09:31:44.793Z,101951.94
2022-10-31T09:34:51.329Z,101953.38
2022-10-31T09:37:25.222Z,101943.34
2022-10-31T09:39:55.584Z,101950.22
2022-10-31T09:43:01.578Z,101946.16
2022-10-31T09:45:50.349Z,101945.13
2022-10-31T09:49:09.645Z,101940.56
2022-10-31T09:52:36.983Z,101948.22
2022-10-31T09:55:23.921Z,101941.09
2022-10-31T09:58:05.930Z,101932.22
2022-10-31T10:03:38.489Z,101942.22
2022-10-31T10:06:34.417Z,101941.78
2022-10-31T10:09:43.085Z,101940.66
2022-10-31T10:13:01.156Z,101938.19
2022-10-31T10:16:22.846Z,101939.13
2022-10-31T10:19:14.709Z,101939.53
2022-10-31T10:22:10.462Z,101942.25
2022-10-31T10:24:58.188Z,101932.34
2022-10-31T10:28:13.606Z,101930.84
2022-10-31T10:30:58.588Z,101938.41
2022-10-31T10:34:00.938Z,101919.41
2022-10-31T10:36:41.401Z,101905.44
2022-10-31T10:39:33.742Z,101905.81
2022-10-31T10:42:36.488Z,101900.28
2022-10-31T10:45:46.678Z,101897.13
2022-10-31T10:48:42.484Z,101895.34
2022-10-31T10:54:41.318Z,101892.44
2022-10-31T10:57:53.941Z,101896.97
2022-10-31T11:00:29.081Z,101887.72
2022-10-31T11:02:57.421Z,101888.41
2022-10-31T11:05:41.296Z,101889.50
2022-10-31T11:08:10.669Z,101889.78
2022-10-31T11:10:40.799Z,101895.31
2022-10-31T11:13:23.798Z,101889.63
2022-10-31T11:16:02.532Z,101880.84
2022-10-31T11:18:43.250Z,101877.09
2022-10-31T11:21:33.990Z,101882.97
2022-10-31T11:24:12.833Z,101877.44
2022-10-31T11:26:44.490Z,101875.84
2022-10-31T11:32:55.459Z,101875.34
2022-10-31T11:35:40.519Z,101874.75
2022-10-31T11:38:26.385Z,101865.16
2022-10-31T11:41:28.127Z,101869.91
2022-10-31T11:44:05.384Z,101859.31
2022-10-31T11:46:55.209Z,101864.25
2022-10-31T11:50:01.574Z,101858.84
2022-10-31T11:52:37.527Z,101856.31
2022-10-31T11:55:46.729Z,101849.75
2022-10-31T11:58:28.743Z,101850.59
2022-10-31T12:00:59.161Z,101847.81
2022-10-31T12:04:03.626Z,101842.97
2022-10-31T12:06:52.745Z,101838.38
2022-10-31T12:09:33.665Z,101828.88
2022-10-31T12:12:15.196Z,101829.84
2022-10-31T12:15:20.782Z,101832.41
2022-10-31T12:18:03.797Z,101824.53
2022-10-31T12:20:59.421Z,101817.84
2022-10-31T12:24:04.679Z,101813.34
2022-10-31T12:27:02.853Z,101812.47
2022-10-31T12:29:48.219Z,101808.31
2022-10-31T12:32:43.905Z,101802.22
2022-10-31T12:35:57.334Z,101795.78
2022-10-31T12:39:10.140Z,101794.81
2022-10-31T12:42:01.731Z,101794.75
2022-10-31T12:45:17.792Z,101787.25
2022-10-31T12:48:10.481Z,101777.41
2022-10-31T12:51:18.972Z,101784.66
2022-10-31T12:54:17.994Z,101784.75
2022-10-31T12:57:10.467Z,101774.41
2022-10-31T12:59:54.141Z,101783.06
2022-10-31T13:02:55.048Z,101771.66
2022-10-31T13:05:37.752Z,101766.00
2022-10-31T13:08:11.821Z,101762.84
2022-10-31T13:13:47.664Z,101766.22
2022-10-31T13:19:52.281Z,101757.56
2022-10-31T13:22:31.264Z,101759.44
2022-10-31T13:25:32.078Z,101750.56
2022-10-31T13:28:46.024Z,101753.41
2022-10-31T13:31:16.383Z,101755.31
2022-10-31T13:33:52.375Z,101753.84
2022-10-31T13:36:36.153Z,101761.75
2022-10-31T13:39:27.655Z,101761.16
2022-10-31T13:42:37.917Z,101764.03
2022-10-31T13:45:34.235Z,101766.72
2022-10-31T13:48:44.452Z,101749.19
2022-10-31T13:51:19.078Z,101767.22
2022-10-31T13:54:04.161Z,101763.75
2022-10-31T13:56:41.880Z,101761.16
2022-10-31T13:59:40.898Z,101760.06
2022-10-31T14:02:33.738Z,101757.31
2022-10-31T14:05:44.959Z,101760.84
2022-10-31T14:08:34.887Z,101758.78
2022-10-31T14:11:37.304Z,101753.13
2022-10-31T14:14:15.294Z,101753.53
2022-10-31T14:17:03.490Z,101758.72
2022-10-31T14:19:34.480Z,101752.09
2022-10-31T14:22:20.872Z,101753.81
2022-10-31T14:25:03.343Z,101756.78
2022-10-31T14:27:38.329Z,101756.41
2022-10-31T14:30:35.041Z,101759.44
2022-10-31T14:33:25.886Z,101766.22
2022-10-31T14:36:11.402Z,101764.22
2022-10-31T14:39:11.978Z,101757.03
2022-10-31T14:42:19.471Z,101750.75
2022-10-31T14:45:15.460Z,101756.69
2022-10-31T14:48:27.464Z,101757.13
2022-10-31T14:50:59.147Z,101761.84
2022-10-31T14:53:30.602Z,101760.06
2022-10-31T14:56:07.167Z,101745.56
2022-10-31T14:58:51.388Z,101759.09
2022-10-31T15:01:53.734Z,101755.03
2022-10-31T15:04:34.007Z,101755.75
2022-10-31T15:07:24.841Z,101757.97
2022-10-31T15:10:08.175Z,101764.34
2022-10-31T15:12:44.840Z,101766.03
2022-10-31T15:15:27.654Z,101772.91
2022-10-31T15:18:08.347Z,101772.06
2022-10-31T15:20:52.004Z,101775.66
2022-10-31T15:23:56.795Z,101767.97
2022-10-31T15:26:36.616Z,101771.63
2022-10-31T15:29:07.131Z,101770.59
2022-10-31T15:31:34.757Z,101766.47
2022-10-31T15:34:21.623Z,101770.72
2022-10-31T15:36:52.497Z,101766.16
2022-10-31T15:39:23.132Z,101765.47
2022-10-31T15:42:03.508Z,101770.91
2022-10-31T15:44:40.147Z,101772.59
2022-10-31T15:47:28.945Z,101772.06
2022-10-31T15:50:16.930Z,101766.84
2022-10-31T15:52:55.864Z,101761.34
2022-10-31T15:55:34.711Z,101775.44
2022-10-31T15:58:21.353Z,101778.31
2022-10-31T16:01:29.749Z,101783.50
2022-10-31T16:04:36.902Z,101775.59
2022-10-31T16:07:26.925Z,101781.84
2022-10-31T16:10:05.777Z,101782.13
2022-10-31T16:12:47.460Z,101787.25
2022-10-31T16:15:36.679Z,101782.09
2022-10-31T16:18:18.773Z,101790.25
2022-10-31T16:21:05.949Z,101784.88
2022-10-31T16:24:02.729Z,101791.91
2022-10-31T16:26:40.563Z,101784.78
2022-10-31T16:29:44.193Z,101783.00
2022-10-31T16:32:56.859Z,101788.38
2022-10-31T16:35:40.749Z,101779.97
2022-10-31T16:38:38.978Z,101779.06
2022-10-31T16:41:41.187Z,101771.06
2022-10-31T16:44:55.673Z,101761.59
2022-10-31T16:50:52.673Z,101774.75
2022-10-31T16:57:05.512Z,101780.03
2022-10-31T16:59:53.587Z,101780.94
2022-10-31T17:02:41.449Z,101796.78
2022-10-31T17:05:45.076Z,101813.59
2022-10-31T17:08:38.099Z,101817.09
2022-10-31T17:11:17.828Z,101830.31
2022-10-31T17:14:32.773Z,101828.59
2022-10-31T17:17:20.849Z,101831.22
2022-10-31T17:20:01.546Z,101837.34
2022-10-31T17:22:40.977Z,101832.00
2022-10-31T17:25:51.135Z,101831.28
2022-10-31T17:28:46.227Z,101828.63
2022-10-31T17:31:59.451Z,101835.78
2022-10-31T17:34:39.092Z,101841.91
2022-10-31T17:37:21.090Z,101838.47
2022-10-31T17:40:15.807Z,101835.88
2022-10-31T17:46:18.611Z,101821.75
2022-10-31T17:49:01.628Z,101822.72
2022-10-31T17:51:40.384Z,101816.47
2022-10-31T17:54:13.759Z,101809.56
2022-10-31T17:56:48.533Z,101820.97
2022-10-31T17:59:30.778Z,101820.13
2022-10-31T18:02:34.496Z,101821.00
2022-10-31T18:05:11.176Z,101845.59
2022-10-31T18:07:49.419Z,101870.25
2022-10-31T18:10:43.218Z,101864.94
2022-10-31T18:13:25.989Z,101860.59
2022-10-31T18:15:58.282Z,101865.00
2022-10-31T18:18:35.271Z,101868.63
2022-10-31T18:21:13.094Z,101876.47
2022-10-31T18:24:04.178Z,101881.81
2022-10-31T18:27:05.164Z,101873.94
2022-10-31T18:29:41.428Z,101875.66
2022-10-31T18:32:17.200Z,101871.22
2022-10-31T18:34:48.559Z,101862.53
2022-10-31T18:37:32.739Z,101874.72
2022-10-31T18:40:06.302Z,101865.06
2022-10-31T18:42:45.629Z,101868.56
2022-10-31T18:45:32.460Z,101871.31
2022-10-31T18:48:14.663Z,101868.59
2022-10-31T18:50:53.890Z,101871.38
2022-10-31T18:53:40.678Z,101879.16
2022-10-31T18:56:25.115Z,101866.91
2022-10-31T18:59:17.671Z,101863.44
2022-10-31T19:01:49.757Z,101872.09
2022-10-31T19:04:38.647Z,101875.59
2022-10-31T19:07:28.252Z,101863.25
2022-10-31T19:10:30.764Z,101854.47
2022-10-31T19:13:16.395Z,101848.25
2022-10-31T19:15:55.827Z,101839.44
2022-10-31T19:18:32.067Z,101847.41
2022-10-31T19:21:08.154Z,101863.25
2022-10-31T19:26:35.256Z,101868.56
2022-10-31T19:29:13.379Z,101875.63
2022-10-31T19:31:52.628Z,101880.97
2022-10-31T19:34:30.928Z,101872.09
2022-10-31T19:37:03.317Z,101869.50
2022-10-31T19:39:34.447Z,101857.22
2022-10-31T19:42:13.363Z,101837.66
2022-10-31T19:44:43.831Z,101823.53
2022-10-31T19:47:16.790Z,101829.69
2022-10-31T19:49:50.547Z,101837.63
2022-10-31T19:52:27.726Z,101821.84
2022-10-31T19:54:56.308Z,101822.59
2022-10-31T20:00:49.866Z,101826.16
2022-10-31T20:03:32.222Z,101852.75
2022-10-31T20:06:09.199Z,101847.53
2022-10-31T20:08:39.647Z,101850.97
2022-10-31T20:11:16.513Z,101847.38
2022-10-31T20:13:56.719Z,101849.19
2022-10-31T20:16:35.782Z,101854.47
2022-10-31T20:19:15.439Z,101850.81
2022-10-31T20:21:52.289Z,101858.88
2022-10-31T20:24:25.663Z,101855.31
2022-10-31T20:27:07.410Z,101861.56
2022-10-31T20:29:46.946Z,101866.00
2022-10-31T20:35:15.605Z,101854.53
2022-10-31T20:37:48.881Z,101848.44
2022-10-31T20:40:27.096Z,101843.09
2022-10-31T20:43:09.700Z,101848.31
2022-10-31T20:46:00.046Z,101854.41
2022-10-31T20:48:31.318Z,101862.47
2022-10-31T20:51:09.371Z,101857.22
2022-10-31T20:53:53.443Z,101849.34
2022-10-31T20:59:28.039Z,101847.56
2022-10-31T21:01:58.686Z,101854.69
2022-10-31T21:05:17.898Z,101858.16
2022-10-31T21:07:52.150Z,101858.38
2022-10-31T21:10:26.928Z,101873.22
2022-10-31T21:12:57.455Z,101880.38
2022-10-31T21:15:28.088Z,101880.31
2022-10-31T21:17:58.253Z,101892.63
2022-10-31T21:20:29.008Z,101891.81
2022-10-31T21:23:02.033Z,101890.84
2022-10-31T21:25:29.791Z,101889.09
2022-10-31T21:28:00.223Z,101889.09
2022-10-31T21:30:36.424Z,101895.28
2022-10-31T21:33:13.975Z,101910.34
2022-10-31T21:35:55.523Z,101924.47
2022-10-31T21:38:29.513Z,101923.72
2022-10-31T21:41:24.362Z,101925.44
2022-10-31T21:44:02.481Z,101934.22
2022-10-31T21:46:52.169Z,101933.31
2022-10-31T21:49:35.422Z,101938.53
2022-10-31T21:52:19.719Z,101939.44
2022-10-31T21:55:09.431Z,101955.44
2022-10-31T21:58:00.109Z,101945.75
2022-10-31T22:00:51.546Z,101943.03
2022-10-31T22:07:13.279Z,101941.38
2022-10-31T22:09:58.606Z,101928.91
2022-10-31T22:13:02.970Z,101928.94
2022-10-31T22:15:55.835Z,101919.13
2022-10-31T22:18:32.625Z,101918.28
2022-10-31T22:21:33.387Z,101917.38
2022-10-31T22:24:50.263Z,101926.22
2022-10-31T22:27:38.718Z,101927.06
2022-10-31T22:30:20.728Z,101924.38
2022-10-31T22:33:15.512Z,101922.63
2022-10-31T22:40:01.011Z,101909.41
2022-10-31T22:42:41.159Z,101914.69
2022-10-31T22:45:20.009Z,101919.06
2022-10-31T22:48:08.005Z,101905.88
2022-10-31T22:50:58.097Z,101894.34
2022-10-31T22:53:31.788Z,101900.53
2022-10-31T22:56:16.510Z,101899.78
2022-10-31T22:58:46.467Z,101901.59
2022-10-31T23:01:30.457Z,101898.91
2022-10-31T23:04:08.941Z,101899.72
2022-10-31T23:06:41.468Z,101894.50
2022-10-31T23:09:19.605Z,101893.53
2022-10-31T23:11:51.711Z,101897.13
2022-10-31T23:14:21.796Z,101901.53
2022-10-31T23:17:03.510Z,101890.00
2022-10-31T23:19:35.105Z,101893.66
2022-10-31T23:22:04.846Z,101885.66
2022-10-31T23:24:43.092Z,101880.44
2022-10-31T23:27:27.563Z,101876.81
2022-10-31T23:29:59.638Z,101880.41
2022-10-31T23:32:33.052Z,101872.41
2022-10-31T23:35:02.997Z,101871.69
2022-10-31T23:37:33.454Z,101871.69
2022-10-31T23:40:08.084Z,101863.72
2022-10-31T23:42:38.771Z,101864.50
2022-10-31T23:45:06.614Z,101858.34
2022-10-31T23:47:38.336Z,101867.22
2022-10-31T23:50:11.809Z,101866.25
2022-10-31T23:52:42.879Z,101876.94
2022-10-31T23:55:13.937Z,101887.53
2022-10-31T23:57:49.666Z,101891.09
